Time;durP1;ratioP1;P1;durP2;ratioP2;P2;SDS_P1;SDS_P2;PMS_P1;PMS_P2;Temp;Humidity;BMP_temperature;BMP_pressure;BME280_temperature;BME280_humidity;BME280_pressure;Samples;Min_cycle;Max_cycle;Signal;HPM_P1;HPM_P2
2023/06/25 00:01:06;;;;;;;10.70;8.10;;;;;;;22.11;63.30;100329.81;105047;1254;61923;-59
2023/06/25 00:03:33;;;;;;;12.10;7.40;;;;;;;22.04;63.39;100331.80;105112;1257;63985;-61
2023/06/25 00:06:00;;;;;;;10.40;8.00;;;;;;;22.04;63.67;100330.29;105687;1254;60998;-61
2023/06/25 00:08:27;;;;;;;10.30;8.00;;;;;;;22.05;63.81;100331.89;105091;1257;60478;-59
2023/06/25 00:10:53;;;;;;;11.20;8.10;;;;;;;22.06;63.90;100331.58;105071;1258;65218;-59
2023/06/25 00:13:21;;;;;;;10.40;7.80;;;;;;;22.07;64.23;100329.34;105342;1260;62514;-59
2023/06/25 00:15:48;;;;;;;12.10;8.90;;;;;;;22.06;64.50;100328.52;105142;1254;62943;-58
2023/06/25 00:18:15;;;;;;;10.50;8.10;;;;;;;22.05;64.59;100330.38;105148;1254;60498;-57
2023/06/25 00:20:42;;;;;;;11.20;8.40;;;;;;;22.06;64.61;100331.48;105568;1255;60816;-57
2023/06/25 00:23:09;;;;;;;9.80;7.40;;;;;;;22.07;64.36;100333.23;105086;1257;65032;-56
2023/06/25 00:25:36;;;;;;;12.50;8.00;;;;;;;22.10;64.22;100334.96;105140;1255;61649;-56
2023/06/25 00:28:07;;;;;;;10.90;7.50;;;;;;;22.12;64.29;100338.11;105100;1253;64080;-56
2023/06/25 00:30:35;;;;;;;11.60;7.70;;;;;;;22.16;64.34;100341.96;105020;1254;60597;-57
2023/06/25 00:33:02;;;;;;;10.80;7.60;;;;;;;22.17;64.47;100338.08;105010;1255;60324;-57
2023/06/25 00:35:44;;;;;;;11.80;7.60;;;;;;;22.17;64.44;100339.20;105274;1254;65030;-58
2023/06/25 00:38:10;;;;;;;9.80;7.20;;;;;;;22.19;64.28;100336.70;105168;1259;62318;-58
2023/06/25 00:40:37;;;;;;;13.50;8.00;;;;;;;22.23;64.09;100336.29;105027;1257;64054;-59
2023/06/25 00:43:05;;;;;;;12.00;7.60;;;;;;;22.24;63.72;100334.98;105084;1254;60539;-59
2023/06/25 00:45:33;;;;;;;9.40;7.40;;;;;;;22.22;63.73;100335.46;105371;1255;60725;-60
2023/06/25 00:48:03;;;;;;;11.80;8.30;;;;;;;22.17;63.92;100332.70;105239;1257;65076;-58
2023/06/25 00:50:30;;;;;;;12.40;7.60;;;;;;;22.14;64.21;100328.55;105408;1257;60479;-59
2023/06/25 00:52:57;;;;;;;11.30;7.40;;;;;;;22.13;64.29;100326.17;105110;1254;64102;-59
2023/06/25 00:55:23;;;;;;;9.40;7.30;;;;;;;22.12;64.60;100320.66;105068;1254;60539;-60
2023/06/25 00:57:52;;;;;;;9.80;6.60;;;;;;;22.12;64.72;100316.45;105140;1258;60546;-64
2023/06/25 01:00:19;;;;;;;10.10;7.80;;;;;;;22.12;64.95;100316.21;105127;1254;65020;-65
2023/06/25 01:03:02;;;;;;;11.10;8.00;;;;;;;22.13;65.31;100313.45;104658;1254;356472;-68
2023/06/25 01:17:07;;;;;;;;;;;;;;;22.25;66.68;100305.40;103151;1283;605355;-60
2023/06/25 01:19:35;;;;;;;11.90;8.40;;;;;;;22.75;65.64;100301.83;104337;1264;101136;-59
2023/06/25 01:22:03;;;;;;;11.50;8.50;;;;;;;22.70;65.83;100297.42;104343;1269;59136;-59
2023/06/25 01:24:34;;;;;;;13.60;9.50;;;;;;;22.60;66.16;100298.15;104474;1264;63338;-59
2023/06/25 01:27:04;;;;;;;11.90;9.90;;;;;;;22.49;66.52;100299.23;104756;1257;61379;-60
2023/06/25 01:29:34;;;;;;;16.60;10.50;;;;;;;22.39;66.84;100296.50;105537;1260;63756;-61
2023/06/25 01:32:02;;;;;;;14.80;9.70;;;;;;;22.28;66.69;100290.93;105146;1262;59744;-63
2023/06/25 01:34:30;;;;;;;12.80;10.00;;;;;;;22.18;66.52;100293.45;105703;1262;59260;-61
2023/06/25 01:36:57;;;;;;;12.10;9.40;;;;;;;22.13;66.64;100291.48;105815;1257;62063;-61
2023/06/25 01:39:25;;;;;;;15.20;11.20;;;;;;;22.03;67.03;100291.70;105861;1257;61317;-64
2023/06/25 01:41:53;;;;;;;13.40;10.60;;;;;;;21.98;67.21;100288.39;104936;1260;63766;-66
2023/06/25 01:44:28;;;;;;;12.50;9.80;;;;;;;22.01;67.19;100286.21;105615;1257;59825;-60
2023/06/25 01:46:55;;;;;;;14.70;9.50;;;;;;;21.98;67.36;100283.90;105942;1263;59979;-62
2023/06/25 01:49:23;;;;;;;14.50;10.50;;;;;;;21.96;67.42;100282.10;105933;1262;64145;-66
2023/06/25 01:52:00;;;;;;;15.00;10.20;;;;;;;21.91;67.23;100283.40;105943;1257;62390;-69
2023/06/25 01:54:28;;;;;;;13.50;10.00;;;;;;;21.88;67.48;100285.79;105936;1257;63798;-68
2023/06/25 01:56:56;;;;;;;11.30;9.40;;;;;;;21.90;67.49;100280.55;105005;1260;59784;-58
2023/06/25 01:59:23;;;;;;;13.40;9.80;;;;;;;21.89;67.35;100277.91;104644;1257;59752;-59
2023/06/25 02:01:51;;;;;;;11.40;8.60;;;;;;;21.86;67.33;100279.21;105634;1257;64596;-57
2023/06/25 02:04:20;;;;;;;11.30;9.10;;;;;;;21.82;67.50;100278.47;104848;1257;60296;-67
2023/06/25 02:06:48;;;;;;;10.60;8.60;;;;;;;21.84;67.59;100282.02;104732;1262;63759;-72
2023/06/25 02:09:16;;;;;;;11.10;9.20;;;;;;;21.82;67.31;100279.70;104741;1262;59736;-65
2023/06/25 02:11:43;;;;;;;13.00;9.30;;;;;;;21.78;67.46;100280.59;104802;1257;59678;-67
2023/06/25 02:14:11;;;;;;;12.30;9.40;;;;;;;21.76;67.60;100284.08;104854;1257;62868;-68
2023/06/25 02:16:39;;;;;;;11.80;9.40;;;;;;;21.76;67.38;100287.98;104841;1257;64272;-66
2023/06/25 02:19:06;;;;;;;14.80;9.20;;;;;;;21.78;67.18;100288.92;104650;1263;62469;-65
2023/06/25 02:21:34;;;;;;;10.70;8.80;;;;;;;21.77;67.11;100285.08;104692;1257;59959;-68
2023/06/25 02:24:01;;;;;;;11.40;9.50;;;;;;;21.73;66.96;100276.85;104860;1262;59586;-67
2023/06/25 02:26:29;;;;;;;10.70;8.60;;;;;;;21.68;67.09;100274.27;104536;1257;64097;-68
2023/06/25 02:28:57;;;;;;;11.70;8.60;;;;;;;21.62;66.97;100268.27;104639;1257;61363;-70
2023/06/25 02:31:24;;;;;;;12.40;9.20;;;;;;;21.60;67.02;100269.79;106054;1260;62522;-70
2023/06/25 02:33:52;;;;;;;10.00;7.70;;;;;;;21.60;67.07;100274.40;105847;1258;59659;-71
2023/06/25 02:36:19;;;;;;;11.10;8.30;;;;;;;21.60;67.00;100272.23;105948;1257;59755;-71
2023/06/25 02:38:47;;;;;;;14.50;7.90;;;;;;;21.61;67.07;100268.39;104969;1257;63364;-69
2023/06/25 02:41:15;;;;;;;12.30;8.60;;;;;;;21.60;67.12;100265.23;104917;1263;61394;-69
2023/06/25 02:43:43;;;;;;;11.30;8.50;;;;;;;21.61;67.23;100271.36;104820;1257;63735;-68
2023/06/25 02:46:10;;;;;;;12.30;8.80;;;;;;;21.65;66.92;100273.77;104586;1262;59676;-67
2023/06/25 02:48:39;;;;;;;10.20;8.20;;;;;;;21.68;66.48;100273.66;104792;1257;60013;-67
2023/06/25 02:51:06;;;;;;;12.10;7.40;;;;;;;21.71;66.08;100274.04;104773;1257;64990;-66
2023/06/25 02:53:34;;;;;;;11.60;7.70;;;;;;;21.71;65.91;100276.81;104932;1261;60137;-68
2023/06/25 02:56:01;;;;;;;10.00;7.90;;;;;;;21.75;66.12;100278.76;104754;1263;63888;-68
2023/06/25 02:58:29;;;;;;;12.00;8.90;;;;;;;21.78;66.10;100275.12;104974;1257;59736;-68
2023/06/25 03:00:57;;;;;;;10.10;8.30;;;;;;;21.77;66.11;100273.05;104696;1257;59778;-66
2023/06/25 03:03:24;;;;;;;10.90;8.60;;;;;;;21.77;65.97;100268.30;104787;1263;64098;-66
2023/06/25 03:05:52;;;;;;;10.80;7.90;;;;;;;21.76;65.58;100265.38;104804;1260;61376;-64
2023/06/25 03:08:20;;;;;;;12.90;8.90;;;;;;;21.77;65.61;100261.89;104839;1260;63729;-65
2023/06/25 03:10:48;;;;;;;10.40;7.70;;;;;;;21.77;65.75;100261.52;104976;1257;59794;-65
2023/06/25 03:13:15;;;;;;;11.30;8.30;;;;;;;21.78;65.78;100257.31;104804;1262;60297;-63
2023/06/25 03:15:43;;;;;;;11.00;8.80;;;;;;;21.81;65.70;100250.64;104893;1257;64512;-63
2023/06/25 03:18:11;;;;;;;10.60;7.70;;;;;;;21.83;65.52;100248.19;104904;1257;61489;-73
2023/06/25 03:20:38;;;;;;;11.90;8.10;;;;;;;21.84;65.69;100244.81;105875;1262;63819;-67
2023/06/25 03:23:05;;;;;;;11.90;9.10;;;;;;;21.85;65.77;100246.13;105859;1257;60083;-66
2023/06/25 03:25:33;;;;;;;10.00;7.70;;;;;;;21.89;65.51;100246.15;104889;1262;60115;-64
2023/06/25 03:28:24;;;;;;;9.30;7.30;;;;;;;21.95;65.46;100249.46;105859;1257;62831;-72
2023/06/25 03:30:53;;;;;;;12.00;7.50;;;;;;;22.00;65.69;100254.71;104710;1257;61351;-69
2023/06/25 03:33:21;;;;;;;11.90;7.70;;;;;;;22.06;65.89;100252.71;104627;1257;62422;-67
2023/06/25 03:35:49;;;;;;;12.10;8.40;;;;;;;22.10;65.78;100254.30;104863;1257;59645;-67
2023/06/25 03:38:16;;;;;;;9.80;7.80;;;;;;;22.14;65.16;100251.00;105256;1263;59689;-61
2023/06/25 03:40:44;;;;;;;10.20;8.50;;;;;;;22.18;64.84;100247.27;104726;1257;64108;-62
2023/06/25 03:43:12;;;;;;;10.60;7.40;;;;;;;22.18;65.11;100241.98;104871;1257;62029;-60
2023/06/25 03:45:40;;;;;;;11.00;7.60;;;;;;;22.19;65.32;100239.06;104781;1258;63669;-60
2023/06/25 03:48:07;;;;;;;10.40;8.50;;;;;;;22.21;65.50;100239.35;104728;1261;59938;-60
2023/06/25 03:50:35;;;;;;;9.80;7.80;;;;;;;22.24;65.87;100244.59;104826;1260;59568;-61
2023/06/25 03:53:03;;;;;;;9.90;7.20;;;;;;;22.29;66.14;100245.25;104663;1258;64122;-61
2023/06/25 03:55:33;;;;;;;11.10;7.40;;;;;;;22.36;65.82;100243.38;104646;1257;61328;-63
2023/06/25 03:58:00;;;;;;;11.70;8.30;;;;;;;22.41;65.56;100239.88;104764;1257;63675;-63
2023/06/25 04:00:28;;;;;;;10.20;8.20;;;;;;;22.44;65.64;100243.96;104578;1264;59618;-61
2023/06/25 04:02:56;;;;;;;10.50;7.60;;;;;;;22.45;65.64;100248.04;104798;1263;59646;-61
2023/06/25 04:05:23;;;;;;;10.40;8.50;;;;;;;22.50;65.80;100244.95;104587;1257;64058;-61
2023/06/25 04:07:52;;;;;;;11.10;8.20;;;;;;;22.56;65.80;100244.55;104645;1263;60555;-63
2023/06/25 04:10:20;;;;;;;10.00;7.00;;;;;;;22.61;65.86;100242.71;104465;1260;62505;-61
2023/06/25 04:12:48;;;;;;;9.80;7.40;;;;;;;22.67;65.76;100244.56;104844;1260;60529;-63
2023/06/25 04:15:16;;;;;;;10.20;7.70;;;;;;;22.69;65.68;100247.20;104905;1257;59612;-62
2023/06/25 04:17:46;;;;;;;10.30;8.00;;;;;;;22.69;64.80;100251.08;104753;1262;65250;-62
2023/06/25 04:20:14;;;;;;;10.00;7.90;;;;;;;22.65;63.96;100254.83;105497;1257;61370;-62
2023/06/25 04:22:42;;;;;;;11.10;7.70;;;;;;;22.63;63.59;100257.56;104765;1258;63764;-63
2023/06/25 04:25:11;;;;;;;10.20;7.80;;;;;;;22.59;63.32;100254.99;104892;1260;59774;-64
2023/06/25 04:27:39;;;;;;;9.40;7.80;;;;;;;22.59;62.91;100249.19;104797;1258;59765;-63
2023/06/25 04:30:07;;;;;;;9.30;6.90;;;;;;;22.64;62.62;100249.96;104883;1258;64146;-62
2023/06/25 04:32:35;;;;;;;9.10;7.10;;;;;;;22.70;62.82;100253.73;105190;1258;62099;-65
2023/06/25 04:35:04;;;;;;;9.20;7.20;;;;;;;22.75;62.78;100255.05;105091;1257;63752;-64
2023/06/25 04:37:31;;;;;;;12.00;8.70;;;;;;;22.79;62.56;100252.58;105810;1260;60445;-63
2023/06/25 04:40:02;;;;;;;10.10;8.20;;;;;;;22.78;62.93;100253.45;105883;1263;59544;-65
2023/06/25 04:42:30;;;;;;;10.00;7.80;;;;;;;22.76;62.94;100251.09;105839;1258;62870;-64
2023/06/25 04:44:59;;;;;;;8.90;7.00;;;;;;;22.82;62.83;100241.69;105876;1258;61324;-66
2023/06/25 04:47:26;;;;;;;9.80;7.10;;;;;;;22.91;62.68;100238.86;105923;1257;62491;-66
2023/06/25 04:49:54;;;;;;;9.70;7.10;;;;;;;22.98;62.47;100239.10;105858;1257;59746;-64
2023/06/25 04:52:21;;;;;;;10.20;7.40;;;;;;;23.03;61.84;100235.33;105815;1260;59564;-64
2023/06/25 04:54:49;;;;;;;12.70;8.00;;;;;;;23.09;61.80;100234.20;105997;1257;64189;-63
2023/06/25 04:57:16;;;;;;;10.60;7.50;;;;;;;23.16;62.22;100229.86;105928;1262;60117;-63
2023/06/25 04:59:44;;;;;;;9.30;7.30;;;;;;;23.23;62.71;100231.79;106034;1263;62438;-63
2023/06/25 05:02:11;;;;;;;10.60;7.90;;;;;;;23.33;62.72;100233.92;105961;1261;59675;-63
2023/06/25 05:04:38;;;;;;;10.80;7.80;;;;;;;23.42;62.20;100236.25;105855;1257;60009;-63
2023/06/25 05:07:06;;;;;;;11.00;8.70;;;;;;;23.44;61.49;100236.61;105199;1258;64107;-62
2023/06/25 05:09:33;;;;;;;13.00;8.70;;;;;;;23.44;60.63;100241.61;105506;1257;60920;-61
2023/06/25 05:12:01;;;;;;;10.50;8.00;;;;;;;23.44;60.31;100245.17;105165;1261;63815;-62
2023/06/25 05:14:30;;;;;;;9.40;7.20;;;;;;;23.44;60.30;100243.59;105028;1257;59718;-61
2023/06/25 05:16:57;;;;;;;9.90;7.70;;;;;;;23.41;59.74;100237.77;105090;1257;59704;-65
2023/06/25 05:19:24;;;;;;;10.30;7.00;;;;;;;23.39;59.83;100235.38;104849;1263;65157;-58
2023/06/25 05:21:52;;;;;;;11.50;7.50;;;;;;;23.44;60.12;100237.19;104788;1259;61792;-58
2023/06/25 05:24:19;;;;;;;10.10;6.80;;;;;;;23.49;59.18;100237.50;104744;1263;63728;-58
2023/06/25 05:26:47;;;;;;;10.40;7.00;;;;;;;23.50;58.53;100241.35;104788;1258;60558;-58
2023/06/25 05:29:15;;;;;;;15.40;8.10;;;;;;;23.50;58.85;100241.73;104673;1258;61360;-59
2023/06/25 05:31:42;;;;;;;10.10;8.40;;;;;;;23.55;58.92;100236.64;104666;1264;63678;-59
2023/06/25 05:34:10;;;;;;;10.00;8.10;;;;;;;23.62;58.67;100235.64;104820;1261;60565;-59
2023/06/25 05:36:37;;;;;;;9.90;7.50;;;;;;;23.69;58.75;100233.17;104842;1262;63662;-60
2023/06/25 05:39:05;;;;;;;10.20;7.80;;;;;;;23.77;58.88;100229.60;104924;1262;60431;-60
2023/06/25 05:41:37;;;;;;;10.60;8.00;;;;;;;23.83;58.95;100229.34;104705;1262;62998;-60
2023/06/25 05:44:05;;;;;;;10.90;7.40;;;;;;;23.90;59.33;100229.44;105213;1258;63783;-60
2023/06/25 05:46:32;;;;;;;14.60;8.30;;;;;;;24.00;58.99;100227.11;104733;1257;62024;-62
2023/06/25 05:49:00;;;;;;;13.70;8.70;;;;;;;24.10;58.36;100225.35;104982;1263;64892;-61
2023/06/25 05:51:28;;;;;;;9.80;7.60;;;;;;;24.20;57.70;100224.46;104799;1257;60565;-59
2023/06/25 05:53:55;;;;;;;9.00;6.90;;;;;;;24.26;57.47;100226.08;105707;1263;60553;-60
2023/06/25 05:56:23;;;;;;;8.10;5.70;;;;;;;24.31;56.90;100230.81;105098;1257;63627;-62
2023/06/25 05:58:51;;;;;;;9.90;7.00;;;;;;;24.35;55.30;100230.00;104823;1258;61922;-63
2023/06/25 06:01:20;;;;;;;8.40;6.20;;;;;;;24.36;53.71;100227.14;104745;1263;63665;-62
2023/06/25 06:03:48;;;;;;;7.30;5.40;;;;;;;24.35;53.84;100231.19;105277;1257;60267;-60
2023/06/25 06:06:16;;;;;;;8.30;6.00;;;;;;;24.36;53.91;100233.80;104882;1257;60427;-62
2023/06/25 06:08:44;;;;;;;8.20;5.70;;;;;;;24.35;52.87;100236.09;104985;1264;65120;-63
2023/06/25 06:11:12;;;;;;;8.70;5.90;;;;;;;24.34;53.51;100237.36;104872;1262;61506;-62
2023/06/25 06:13:39;;;;;;;11.20;5.70;;;;;;;24.35;53.24;100238.30;104769;1262;62440;-67
2023/06/25 06:16:07;;;;;;;8.50;5.80;;;;;;;24.37;53.44;100237.23;104911;1260;60463;-63
2023/06/25 06:18:35;;;;;;;7.40;5.60;;;;;;;24.39;53.73;100235.92;104995;1263;61505;-64
2023/06/25 06:21:03;;;;;;;7.90;5.70;;;;;;;24.42;52.76;100234.78;105700;1263;64913;-63
2023/06/25 06:23:30;;;;;;;9.90;5.70;;;;;;;24.48;53.30;100233.30;105959;1257;61329;-65
2023/06/25 06:25:58;;;;;;;8.30;5.70;;;;;;;24.53;52.94;100233.95;105158;1257;63710;-63
2023/06/25 06:28:25;;;;;;;8.80;6.00;;;;;;;24.54;52.00;100229.23;105869;1257;60663;-64
2023/06/25 06:30:53;;;;;;;8.30;5.70;;;;;;;24.56;52.99;100228.63;105911;1258;60543;-62
2023/06/25 06:33:20;;;;;;;7.60;5.20;;;;;;;24.57;53.28;100229.87;105724;1257;64930;-63
2023/06/25 06:35:48;;;;;;;11.00;6.30;;;;;;;24.57;53.08;100228.26;105669;1263;60421;-62
2023/06/25 06:38:15;;;;;;;7.60;5.50;;;;;;;24.62;53.27;100233.46;104897;1260;62487;-63
2023/06/25 06:40:43;;;;;;;9.30;6.20;;;;;;;24.66;52.80;100233.85;105871;1262;60521;-62
2023/06/25 06:43:11;;;;;;;8.90;6.30;;;;;;;24.69;52.56;100237.14;105977;1263;62705;-61
2023/06/25 06:45:38;;;;;;;8.30;6.00;;;;;;;24.72;52.70;100238.03;105935;1263;63744;-62
2023/06/25 06:48:06;;;;;;;7.70;5.90;;;;;;;24.77;53.15;100239.56;105882;1263;61950;-64
2023/06/25 06:50:34;;;;;;;11.30;6.30;;;;;;;24.82;53.00;100235.58;104940;1262;62523;-61
2023/06/25 06:53:01;;;;;;;8.70;6.00;;;;;;;24.86;53.13;100233.14;104843;1260;60818;-65
2023/06/25 06:55:31;;;;;;;9.60;6.40;;;;;;;24.91;53.84;100234.59;104934;1261;60453;-67
2023/06/25 06:57:58;;;;;;;8.40;6.50;;;;;;;24.97;53.40;100235.36;104945;1262;64875;-60
2023/06/25 07:00:26;;;;;;;8.80;6.70;;;;;;;25.00;53.32;100232.64;104915;1261;61357;-62
2023/06/25 07:02:56;;;;;;;8.20;6.40;;;;;;;25.04;53.59;100233.39;104760;1264;63809;-60
2023/06/25 07:05:24;;;;;;;8.40;6.40;;;;;;;25.09;53.61;100232.20;105699;1255;60558;-65
2023/06/25 07:07:52;;;;;;;9.20;6.20;;;;;;;25.14;53.09;100229.07;104913;1259;60504;-68
2023/06/25 07:10:19;;;;;;;9.30;6.50;;;;;;;25.19;52.29;100228.52;106237;1254;64924;-63
2023/06/25 07:12:47;;;;;;;10.40;7.00;;;;;;;25.19;52.12;100221.58;105020;1259;61409;-65
2023/06/25 07:15:14;;;;;;;7.90;6.00;;;;;;;25.17;51.77;100219.96;105108;1260;63712;-61
2023/06/25 07:17:42;;;;;;;9.10;6.20;;;;;;;25.14;51.23;100223.31;104995;1258;60443;-63
2023/06/25 07:20:10;;;;;;;8.20;6.30;;;;;;;25.14;51.70;100221.41;105760;1255;60322;-64
2023/06/25 07:22:40;;;;;;;8.10;6.00;;;;;;;25.20;51.82;100217.45;105526;1260;65358;-59
2023/06/25 07:25:08;;;;;;;8.10;6.10;;;;;;;25.27;50.40;100224.69;105398;1255;61463;-59
2023/06/25 07:27:36;;;;;;;8.90;6.50;;;;;;;25.32;50.56;100226.73;105120;1259;63885;-58
2023/06/25 07:30:04;;;;;;;7.60;6.00;;;;;;;25.34;50.56;100227.81;104921;1260;60568;-59
2023/06/25 07:32:32;;;;;;;7.80;6.00;;;;;;;25.36;50.80;100233.05;106237;1255;60451;-63
2023/06/25 07:35:00;;;;;;;8.20;6.20;;;;;;;25.40;51.04;100231.27;105095;1254;64944;-61
2023/06/25 07:37:27;;;;;;;8.80;6.60;;;;;;;25.46;51.04;100233.16;104982;1260;60417;-60
2023/06/25 07:39:55;;;;;;;8.80;6.90;;;;;;;25.51;50.85;100234.17;104786;1258;63863;-61
2023/06/25 07:42:22;;;;;;;9.60;7.00;;;;;;;25.59;50.84;100233.32;105555;1257;60485;-61
2023/06/25 07:44:50;;;;;;;9.00;6.50;;;;;;;25.68;51.54;100234.02;104912;1260;60440;-61
2023/06/25 07:47:25;;;;;;;8.10;6.10;;;;;;;25.76;50.94;100233.16;105121;1258;65021;-60
2023/06/25 07:49:53;;;;;;;9.10;6.80;;;;;;;25.84;51.08;100231.28;104999;1263;60485;-63
2023/06/25 07:52:20;;;;;;;10.30;6.30;;;;;;;25.90;49.78;100229.98;105140;1259;63685;-61
2023/06/25 07:54:48;;;;;;;9.10;6.10;;;;;;;25.94;49.22;100233.61;105033;1255;60565;-60
2023/06/25 07:57:16;;;;;;;7.80;6.00;;;;;;;25.96;48.77;100236.00;105193;1260;60357;-61
2023/06/25 07:59:43;;;;;;;8.70;5.90;;;;;;;26.02;49.34;100235.34;105384;1254;67179;-60
2023/06/25 08:02:19;;;;;;;;;;;;;;;26.08;48.22;100232.33;105237;1261;62362;-60
2023/06/25 08:04:47;;;;;;;8.50;6.20;;;;;;;26.10;47.01;100234.81;105103;1260;63699;-59
2023/06/25 08:07:15;;;;;;;7.90;6.00;;;;;;;26.11;47.13;100233.16;105231;1260;60569;-60
2023/06/25 08:09:44;;;;;;;8.30;6.20;;;;;;;26.11;46.89;100228.04;105124;1259;61698;-63
2023/06/25 08:12:14;;;;;;;7.60;5.60;;;;;;;26.14;46.84;100224.50;105092;1259;64892;-60
2023/06/25 08:14:43;;;;;;;7.70;5.60;;;;;;;26.19;46.60;100222.45;105410;1260;60374;-62
2023/06/25 08:17:10;;;;;;;7.80;6.20;;;;;;;26.24;46.49;100225.89;105184;1260;64207;-61
2023/06/25 08:19:38;;;;;;;7.50;5.40;;;;;;;26.29;45.91;100226.62;105415;1258;60876;-60
2023/06/25 08:22:06;;;;;;;10.20;6.60;;;;;;;26.35;46.27;100225.62;105054;1259;60523;-60
2023/06/25 08:24:33;;;;;;;8.90;6.30;;;;;;;26.42;46.04;100227.62;105064;1260;65059;-60
2023/06/25 08:27:01;;;;;;;8.20;6.60;;;;;;;26.46;46.12;100228.21;105095;1255;62280;-60
2023/06/25 08:29:29;;;;;;;10.70;7.40;;;;;;;26.53;46.74;100229.58;105160;1260;64002;-59
2023/06/25 08:31:57;;;;;;;8.30;6.80;;;;;;;26.57;46.58;100229.63;105426;1259;60428;-60
2023/06/25 08:34:24;;;;;;;9.50;6.80;;;;;;;26.60;46.88;100230.98;105105;1254;60901;-59
2023/06/25 08:36:52;;;;;;;10.00;7.60;;;;;;;26.64;47.14;100231.62;105037;1259;64922;-58
2023/06/25 08:39:19;;;;;;;9.60;7.40;;;;;;;26.70;46.74;100228.58;105095;1260;63343;-59
2023/06/25 08:41:48;;;;;;;8.50;6.50;;;;;;;26.78;47.10;100225.45;105116;1260;62501;-59
2023/06/25 08:44:16;;;;;;;9.60;7.80;;;;;;;26.83;46.98;100223.44;105355;1257;61241;-62
2023/06/25 08:46:47;;;;;;;10.70;7.90;;;;;;;26.90;46.81;100221.59;105045;1254;60334;-61
2023/06/25 08:49:16;;;;;;;9.00;7.40;;;;;;;26.98;47.12;100220.95;105498;1254;64919;-59
2023/06/25 08:51:43;;;;;;;9.40;8.10;;;;;;;27.09;47.43;100214.61;105231;1261;61544;-65
2023/06/25 08:54:11;;;;;;;11.90;8.90;;;;;;;27.16;47.10;100217.73;105044;1260;62464;-63
2023/06/25 08:56:39;;;;;;;11.80;8.60;;;;;;;27.19;46.95;100219.21;105233;1254;60531;-62
2023/06/25 08:59:06;;;;;;;10.70;9.20;;;;;;;27.19;47.30;100219.23;105043;1255;60444;-64
2023/06/25 09:01:34;;;;;;;11.40;8.10;;;;;;;27.19;46.91;100219.21;105032;1260;64925;-62
2023/06/25 09:04:02;;;;;;;12.80;9.70;;;;;;;27.16;47.49;100218.01;105046;1264;61352;-62
2023/06/25 09:06:29;;;;;;;11.30;9.20;;;;;;;27.13;47.70;100215.02;105054;1260;63743;-61
2023/06/25 09:08:57;;;;;;;11.80;9.30;;;;;;;27.11;47.86;100213.52;105135;1254;60536;-61
2023/06/25 09:11:31;;;;;;;12.20;8.50;;;;;;;27.10;47.66;100209.83;104957;1255;60605;-61
2023/06/25 09:13:59;;;;;;;12.50;9.90;;;;;;;27.08;47.77;100207.46;105430;1260;67434;-61
2023/06/25 09:16:27;;;;;;;13.10;9.40;;;;;;;27.05;47.61;100210.48;105172;1257;69020;-63
2023/06/25 09:18:55;;;;;;;9.90;8.40;;;;;;;27.02;47.87;100207.87;104977;1257;64258;-63
2023/06/25 09:21:22;;;;;;;10.30;8.60;;;;;;;27.00;47.62;100205.55;105873;1258;60412;-65
2023/06/25 09:23:53;;;;;;;11.50;9.00;;;;;;;26.93;47.36;100206.16;105144;1260;60434;-63
2023/06/25 09:26:22;;;;;;;10.70;8.80;;;;;;;26.83;47.02;100210.09;108176;1259;63875;-62
2023/06/25 09:28:52;;;;;;;12.00;8.20;;;;;;;26.75;47.55;100207.15;105029;1254;61624;-62
2023/06/25 09:31:20;;;;;;;10.30;8.60;;;;;;;26.73;47.89;100210.39;104918;1260;64221;-64
2023/06/25 09:33:50;;;;;;;9.70;8.20;;;;;;;26.71;48.52;100208.83;105189;1260;60485;-63
2023/06/25 09:36:18;;;;;;;12.00;8.60;;;;;;;26.68;48.70;100211.09;105250;1260;60327;-61
2023/06/25 09:39:04;;;;;;;11.00;8.30;;;;;;;26.66;48.69;100213.82;105019;1254;65384;-62
2023/06/25 09:41:36;;;;;;;10.30;8.00;;;;;;;26.67;48.98;100212.30;104880;1259;60552;-65
2023/06/25 09:44:04;;;;;;;10.20;8.40;;;;;;;26.68;49.23;100214.82;105220;1257;63725;-69
2023/06/25 09:46:37;;;;;;;9.20;7.60;;;;;;;26.71;49.97;100214.43;109021;1260;58233;-61
2023/06/25 09:49:05;;;;;;;8.90;7.40;;;;;;;26.74;50.25;100209.12;105160;1257;60392;-61
2023/06/25 09:51:40;;;;;;;11.60;8.20;;;;;;;26.78;50.16;100208.63;104966;1259;63651;-60
2023/06/25 09:54:08;;;;;;;10.60;8.20;;;;;;;26.84;50.25;100207.14;105457;1260;70272;-62
2023/06/25 09:56:36;;;;;;;12.30;8.40;;;;;;;26.92;50.31;100206.06;104956;1254;63821;-58
2023/06/25 09:59:05;;;;;;;9.50;7.90;;;;;;;26.99;50.18;100203.16;105437;1260;60565;-59
2023/06/25 10:01:32;;;;;;;11.00;7.90;;;;;;;27.05;49.88;100197.89;105120;1255;61034;-59
2023/06/25 10:04:00;;;;;;;11.40;8.60;;;;;;;27.13;49.93;100194.98;105119;1257;63653;-58
2023/06/25 10:06:28;;;;;;;10.00;8.30;;;;;;;27.27;49.77;100191.14;105115;1259;69534;-59
2023/06/25 10:08:56;;;;;;;9.90;7.70;;;;;;;27.42;49.45;100188.10;104765;1264;63761;-59
2023/06/25 10:11:23;;;;;;;12.80;8.10;;;;;;;27.57;49.20;100181.10;105072;1254;60549;-59
2023/06/25 10:13:52;;;;;;;8.80;7.40;;;;;;;27.71;49.34;100180.67;105633;1257;60484;-59
2023/06/25 10:16:20;;;;;;;11.40;7.90;;;;;;;27.84;48.74;100173.79;105080;1259;64989;-59
2023/06/25 10:19:04;;;;;;;10.80;8.40;;;;;;;27.98;48.64;100171.57;105268;1254;63504;-57
2023/06/25 10:21:32;;;;;;;10.90;8.80;;;;;;;28.10;48.62;100165.85;104859;1259;63745;-57
2023/06/25 10:24:00;;;;;;;9.20;7.50;;;;;;;28.21;47.90;100163.64;104881;1260;62977;-56
2023/06/25 10:26:29;;;;;;;10.50;8.00;;;;;;;28.30;47.61;100166.11;104934;1254;60466;-56
2023/06/25 10:29:01;;;;;;;11.40;8.30;;;;;;;28.39;46.95;100164.48;109015;1254;63632;-58
2023/06/25 10:31:43;;;;;;;10.00;8.00;;;;;;;28.47;46.30;100162.86;109041;1254;61412;-56
2023/06/25 10:34:12;;;;;;;8.40;6.40;;;;;;;28.50;45.15;100160.42;109048;1254;66856;-57
2023/06/25 10:36:50;;;;;;;9.70;6.60;;;;;;;28.51;43.28;100160.85;108957;1254;58939;-56
2023/06/25 10:39:18;;;;;;;9.40;6.60;;;;;;;28.47;41.71;100160.09;109011;1254;58418;-56
2023/06/25 10:41:46;;;;;;;7.90;6.00;;;;;;;28.42;42.06;100161.80;109000;1254;65470;-55
2023/06/25 10:44:14;;;;;;;7.60;5.50;;;;;;;28.42;43.26;100160.41;106096;1254;60424;-54
2023/06/25 10:46:41;;;;;;;8.80;5.80;;;;;;;28.42;43.41;100162.45;105371;1259;64323;-55
2023/06/25 10:49:20;;;;;;;7.30;5.00;;;;;;;28.34;43.27;100164.44;105002;1254;60328;-54
2023/06/25 10:51:47;;;;;;;7.60;5.30;;;;;;;28.26;43.57;100169.55;105380;1254;61082;-55
2023/06/25 10:54:15;;;;;;;7.20;5.70;;;;;;;28.19;43.37;100174.00;104742;1254;64983;-53
2023/06/25 10:56:43;;;;;;;9.30;6.30;;;;;;;28.15;44.02;100170.36;104863;1253;61999;-53
2023/06/25 10:59:21;;;;;;;7.70;5.10;;;;;;;28.14;44.65;100171.91;104854;1257;63741;-53
2023/06/25 11:01:51;;;;;;;7.60;5.60;;;;;;;28.10;44.08;100172.22;104980;1260;60697;-54
2023/06/25 11:04:19;;;;;;;7.40;5.50;;;;;;;28.05;43.41;100178.62;105219;1254;60527;-53
2023/06/25 11:06:47;;;;;;;7.20;5.40;;;;;;;27.97;43.49;100177.72;105622;1259;64848;-53
2023/06/25 11:09:14;;;;;;;7.90;5.40;;;;;;;27.88;43.12;100175.10;104967;1252;61419;-53
2023/06/25 11:11:42;;;;;;;7.00;4.70;;;;;;;27.79;42.72;100174.12;105098;1254;62422;-53
2023/06/25 11:14:09;;;;;;;8.20;5.10;;;;;;;27.69;42.64;100173.18;104965;1254;60555;-53
2023/06/25 11:16:45;;;;;;;9.60;5.60;;;;;;;27.59;43.20;100169.25;105127;1260;60296;-53
2023/06/25 11:19:13;;;;;;;9.60;5.80;;;;;;;27.49;43.55;100167.13;105087;1254;64933;-54
2023/06/25 11:21:40;;;;;;;6.50;4.40;;;;;;;27.38;43.33;100166.36;105245;1254;61388;-54
2023/06/25 11:24:09;;;;;;;8.10;5.20;;;;;;;27.24;43.58;100167.94;105104;1254;63772;-54
2023/06/25 11:26:43;;;;;;;7.10;4.80;;;;;;;27.13;43.77;100167.28;105260;1254;60447;-53
2023/06/25 11:29:11;;;;;;;8.50;4.90;;;;;;;27.07;44.60;100168.77;105086;1259;60549;-55